createdAt,value
2019-03-25T00:01:05.973Z,22.48
2019-03-25T00:03:34.644Z,10.13
2019-03-25T00:06:03.288Z,16.75
2019-03-25T00:08:32.224Z,14.80
2019-03-25T00:11:00.795Z,16.65
2019-03-25T00:13:29.398Z,14.43
2019-03-25T00:15:58.020Z,18.40
2019-03-25T00:18:26.661Z,14.03
2019-03-25T00:20:55.254Z,14.95
2019-03-25T00:23:23.827Z,10.50
2019-03-25T00:25:52.409Z,14.53
2019-03-25T00:28:21.045Z,13.10
2019-03-25T00:30:49.634Z,15.05
2019-03-25T00:33:18.200Z,14.30
2019-03-25T00:35:47.076Z,13.55
2019-03-25T00:38:15.648Z,12.88
2019-03-25T00:40:44.312Z,14.80
2019-03-25T00:43:12.867Z,14.45
2019-03-25T00:45:41.519Z,10.28
2019-03-25T00:48:10.087Z,15.60
2019-03-25T00:50:38.664Z,13.90
2019-03-25T00:53:07.343Z,12.33
2019-03-25T00:55:35.939Z,15.48
2019-03-25T00:58:04.645Z,16.73
2019-03-25T01:00:33.352Z,11.70
2019-03-25T01:03:02.004Z,14.23
2019-03-25T01:05:31.030Z,15.60
2019-03-25T01:07:59.622Z,11.68
2019-03-25T01:10:28.328Z,13.45
2019-03-25T01:12:56.990Z,10.15
2019-03-25T01:15:25.564Z,13.15
2019-03-25T01:17:54.153Z,15.95
2019-03-25T01:20:22.732Z,10.80
2019-03-25T01:22:51.291Z,9.78
2019-03-25T01:25:20.245Z,14.23
2019-03-25T01:27:48.835Z,14.40
2019-03-25T01:30:17.846Z,18.50
2019-03-25T01:32:46.722Z,13.08
2019-03-25T01:35:15.354Z,12.15
2019-03-25T01:37:43.972Z,15.83
2019-03-25T01:40:12.988Z,14.73
2019-03-25T01:42:41.725Z,13.38
2019-03-25T01:45:10.435Z,13.03
2019-03-25T01:47:39.011Z,12.23
2019-03-25T01:50:08.045Z,13.83
2019-03-25T01:52:36.636Z,12.90
2019-03-25T01:55:13.293Z,12.25
2019-03-25T01:57:35.779Z,11.22
2019-03-25T02:00:06.673Z,16.32
2019-03-25T02:02:35.399Z,20.90
2019-03-25T02:05:04.708Z,16.45
2019-03-25T02:07:33.292Z,18.98
2019-03-25T02:10:01.878Z,15.00
2019-03-25T02:12:30.543Z,10.75
2019-03-25T02:14:59.103Z,12.10
2019-03-25T02:17:27.685Z,14.58
2019-03-25T02:19:56.267Z,18.30
2019-03-25T02:22:24.939Z,18.57
2019-03-25T02:24:53.524Z,20.68
2019-03-25T02:27:22.106Z,15.18
2019-03-25T02:29:51.102Z,21.75
2019-03-25T02:32:19.713Z,22.00
2019-03-25T02:34:48.275Z,21.05
2019-03-25T02:37:17.006Z,17.37
2019-03-25T02:39:45.583Z,11.10
2019-03-25T02:42:14.551Z,16.80
2019-03-25T02:44:43.190Z,13.93
2019-03-25T02:47:11.906Z,11.27
2019-03-25T02:49:40.418Z,18.13
2019-03-25T02:52:09.054Z,15.60
2019-03-25T02:54:37.640Z,15.23
2019-03-25T02:57:06.279Z,19.30
2019-03-25T02:59:34.853Z,16.57
2019-03-25T03:02:03.401Z,14.83
2019-03-25T03:04:31.994Z,13.43
2019-03-25T03:07:00.944Z,15.57
2019-03-25T03:09:29.509Z,16.30
2019-03-25T03:11:58.517Z,13.97
2019-03-25T03:14:27.418Z,19.10
2019-03-25T03:16:55.990Z,19.40
2019-03-25T03:19:24.569Z,19.07
2019-03-25T03:21:53.211Z,18.60
2019-03-25T03:24:21.876Z,21.00
2019-03-25T03:26:50.577Z,18.97
2019-03-25T03:29:19.162Z,22.43
2019-03-25T03:31:47.736Z,18.57
2019-03-25T03:34:16.302Z,8.47
2019-03-25T03:36:44.887Z,15.33
2019-03-25T03:39:13.474Z,17.43
2019-03-25T03:41:42.407Z,13.70
2019-03-25T03:44:11.288Z,16.48
2019-03-25T03:46:39.858Z,15.37
2019-03-25T03:49:08.453Z,18.70
2019-03-25T03:51:37.277Z,18.87
2019-03-25T03:54:06.275Z,17.40
2019-03-25T03:56:36.695Z,19.07
2019-03-25T03:59:05.393Z,14.20
2019-03-25T04:01:33.962Z,17.77
2019-03-25T04:04:02.548Z,15.00
2019-03-25T04:06:31.113Z,16.40
2019-03-25T04:09:00.262Z,19.37
2019-03-25T04:11:28.924Z,19.07
2019-03-25T04:13:57.644Z,17.77
2019-03-25T04:16:26.300Z,27.75
2019-03-25T04:18:54.881Z,14.70
2019-03-25T04:21:23.435Z,17.02
2019-03-25T04:23:52.033Z,21.10
2019-03-25T04:26:28.653Z,20.90
2019-03-25T04:28:50.840Z,15.93
2019-03-25T04:31:19.421Z,16.35
2019-03-25T04:33:48.009Z,20.75
2019-03-25T04:36:16.575Z,20.52
2019-03-25T04:38:45.150Z,15.33
2019-03-25T04:41:13.742Z,15.38
2019-03-25T04:43:42.334Z,14.65
2019-03-25T04:46:10.901Z,16.82
2019-03-25T04:48:39.464Z,16.95
2019-03-25T04:51:08.377Z,21.00
2019-03-25T04:53:37.264Z,20.12
2019-03-25T04:56:05.860Z,17.37
2019-03-25T04:58:34.412Z,18.40
2019-03-25T05:01:03.016Z,22.37
2019-03-25T05:03:31.577Z,23.57
2019-03-25T05:06:00.318Z,14.98
2019-03-25T05:08:28.896Z,15.35
2019-03-25T05:10:57.543Z,23.52
2019-03-25T05:13:26.395Z,22.85
2019-03-25T05:15:55.050Z,17.57
2019-03-25T05:18:23.619Z,18.65
2019-03-25T05:20:52.206Z,18.27
2019-03-25T05:23:20.774Z,21.33
2019-03-25T05:25:49.355Z,14.87
2019-03-25T05:28:17.943Z,17.82
2019-03-25T05:30:46.589Z,20.48
2019-03-25T05:33:15.239Z,16.70
2019-03-25T05:35:43.823Z,23.98
2019-03-25T05:38:12.383Z,15.78
2019-03-25T05:40:40.983Z,18.23
2019-03-25T05:43:09.534Z,19.00
2019-03-25T05:45:38.135Z,25.25
2019-03-25T05:48:06.698Z,16.35
2019-03-25T05:50:35.352Z,21.62
2019-03-25T05:53:03.991Z,18.87
2019-03-25T05:55:32.987Z,23.00
2019-03-25T05:58:01.575Z,23.45
2019-03-25T06:00:31.883Z,25.52
2019-03-25T06:03:00.799Z,20.75
2019-03-25T06:05:29.471Z,16.80
2019-03-25T06:07:58.049Z,17.42
2019-03-25T06:10:26.691Z,23.65
2019-03-25T06:12:55.276Z,20.17
2019-03-25T06:15:23.919Z,21.80
2019-03-25T06:17:52.520Z,22.37
2019-03-25T06:20:21.087Z,19.17
2019-03-25T06:22:49.601Z,15.80
2019-03-25T06:25:18.200Z,23.02
2019-03-25T06:27:46.811Z,21.23
2019-03-25T06:30:16.007Z,21.07
2019-03-25T06:32:44.834Z,27.02
2019-03-25T06:35:13.506Z,23.98
2019-03-25T06:37:42.148Z,32.25
2019-03-25T06:40:11.247Z,19.00
2019-03-25T06:42:39.885Z,19.15
2019-03-25T06:45:09.024Z,22.50
2019-03-25T06:47:37.668Z,26.25
2019-03-25T06:50:07.879Z,28.45
2019-03-25T06:52:36.901Z,20.97
2019-03-25T06:55:07.335Z,28.50
2019-03-25T06:57:38.442Z,14.87
2019-03-25T07:00:10.837Z,25.30
2019-03-25T07:02:39.430Z,28.43
2019-03-25T07:05:08.315Z,20.33
2019-03-25T07:07:36.968Z,22.10
2019-03-25T07:10:07.431Z,24.37
2019-03-25T07:12:37.045Z,22.03
2019-03-25T07:15:08.745Z,23.10
2019-03-25T07:17:37.335Z,18.80
2019-03-25T07:20:07.526Z,17.80
2019-03-25T07:22:36.187Z,21.47
2019-03-25T07:25:06.673Z,19.20
2019-03-25T07:27:37.075Z,26.23
2019-03-25T07:30:07.648Z,18.50
2019-03-25T07:32:36.290Z,25.00
2019-03-25T07:35:24.318Z,19.23
2019-03-25T07:37:52.920Z,19.87
2019-03-25T07:40:21.562Z,22.80
2019-03-25T07:42:50.144Z,29.13
2019-03-25T07:45:18.862Z,27.03
2019-03-25T07:47:47.512Z,22.60
2019-03-25T07:50:16.225Z,20.67
2019-03-25T07:52:44.823Z,25.50
2019-03-25T07:55:13.560Z,20.87
2019-03-25T07:57:48.246Z,16.30
2019-03-25T08:00:16.418Z,18.23
2019-03-25T08:02:45.530Z,20.37
2019-03-25T08:05:14.223Z,22.40
2019-03-25T08:07:42.876Z,20.37
2019-03-25T08:10:12.111Z,16.13
2019-03-25T08:12:40.765Z,15.73
2019-03-25T08:15:09.506Z,22.70
2019-03-25T08:17:38.143Z,19.97
2019-03-25T08:20:08.285Z,20.70
2019-03-25T08:22:36.856Z,18.17
2019-03-25T08:25:07.384Z,18.07
2019-03-25T08:27:36.098Z,21.57
2019-03-25T08:30:09.142Z,17.43
2019-03-25T08:32:37.764Z,20.67
2019-03-25T08:35:08.849Z,19.53
2019-03-25T08:37:37.491Z,22.93
2019-03-25T08:40:07.001Z,26.70
2019-03-25T08:42:35.587Z,22.23
2019-03-25T08:45:05.116Z,17.13
2019-03-25T08:47:33.683Z,21.63
2019-03-25T08:50:02.711Z,20.37
2019-03-25T08:52:31.591Z,22.57
2019-03-25T08:55:00.303Z,27.93
2019-03-25T08:57:28.872Z,30.03
2019-03-25T08:59:57.866Z,22.87
2019-03-25T09:02:26.758Z,28.23
2019-03-25T09:04:55.345Z,20.73
2019-03-25T09:07:23.943Z,25.40
2019-03-25T09:09:52.831Z,23.63
2019-03-25T09:12:21.431Z,23.17
2019-03-25T09:14:50.009Z,22.10
2019-03-25T09:17:18.640Z,23.30
2019-03-25T09:19:47.589Z,27.17
2019-03-25T09:22:16.168Z,28.33
2019-03-25T09:24:44.728Z,20.07
2019-03-25T09:27:13.355Z,24.03
2019-03-25T09:29:41.999Z,23.80
2019-03-25T09:32:10.563Z,25.30
2019-03-25T09:34:40.081Z,23.60
2019-03-25T09:37:08.729Z,25.37
2019-03-25T09:39:37.382Z,26.33
2019-03-25T09:42:06.009Z,33.57
2019-03-25T09:44:34.695Z,24.13
2019-03-25T09:47:03.326Z,24.63
2019-03-25T09:49:31.975Z,27.53
2019-03-25T09:52:00.616Z,20.70
2019-03-25T09:54:29.269Z,31.03
2019-03-25T09:56:57.846Z,20.63
2019-03-25T09:59:26.438Z,21.10
2019-03-25T10:01:55.069Z,26.43
2019-03-25T10:04:24.286Z,20.67
2019-03-25T10:06:52.911Z,20.23
2019-03-25T10:09:21.520Z,18.70
2019-03-25T10:11:50.081Z,22.53
2019-03-25T10:14:18.992Z,29.20
2019-03-25T10:16:47.661Z,33.07
2019-03-25T10:19:16.206Z,21.43
2019-03-25T10:21:44.797Z,27.87
2019-03-25T10:24:13.485Z,21.00
2019-03-25T10:26:42.080Z,24.40
2019-03-25T10:29:10.647Z,23.63
2019-03-25T10:31:39.616Z,23.70
2019-03-25T10:34:08.355Z,21.83
2019-03-25T10:36:36.941Z,22.17
2019-03-25T10:39:07.310Z,24.30
2019-03-25T10:41:38.373Z,23.37
2019-03-25T10:44:06.349Z,30.07
2019-03-25T10:46:34.986Z,26.87
2019-03-25T10:49:03.724Z,22.13
2019-03-25T10:51:32.323Z,27.27
2019-03-25T10:54:01.312Z,21.47
2019-03-25T10:56:29.877Z,27.47
2019-03-25T10:58:58.668Z,29.20
2019-03-25T11:01:27.835Z,21.30
2019-03-25T11:03:56.587Z,23.43
2019-03-25T11:06:25.218Z,20.20
2019-03-25T11:08:53.886Z,28.43
2019-03-25T11:11:22.516Z,14.63
2019-03-25T11:13:51.128Z,17.53
2019-03-25T11:16:19.689Z,28.17
2019-03-25T11:18:48.290Z,18.43
2019-03-25T11:21:17.212Z,21.97
2019-03-25T11:23:45.889Z,13.63
2019-03-25T11:26:14.456Z,24.87
2019-03-25T11:28:43.139Z,18.23
2019-03-25T11:31:11.764Z,22.27
2019-03-25T11:33:40.373Z,14.73
2019-03-25T11:36:09.100Z,15.60
2019-03-25T11:38:38.145Z,21.77
2019-03-25T11:41:06.879Z,25.83
2019-03-25T11:43:35.521Z,21.93
2019-03-25T11:46:04.725Z,19.50
2019-03-25T11:48:33.358Z,33.87
2019-03-25T11:51:02.368Z,21.97
2019-03-25T11:53:30.972Z,20.13
2019-03-25T11:55:59.554Z,22.70
2019-03-25T11:58:28.138Z,16.43
2019-03-25T12:00:56.875Z,20.57
2019-03-25T12:03:25.499Z,23.27
2019-03-25T12:05:54.222Z,27.33
2019-03-25T12:08:22.965Z,25.20
2019-03-25T12:10:51.675Z,18.43
2019-03-25T12:13:20.385Z,21.37
2019-03-25T12:15:48.964Z,27.00
2019-03-25T12:18:17.898Z,20.23
2019-03-25T12:20:46.540Z,20.17
2019-03-25T12:23:15.208Z,23.20
2019-03-25T12:25:43.865Z,25.57
2019-03-25T12:28:12.543Z,21.43
2019-03-25T12:30:41.187Z,17.13
2019-03-25T12:33:09.917Z,23.57
2019-03-25T12:35:38.494Z,21.50
2019-03-25T12:38:07.186Z,21.60
2019-03-25T12:40:35.922Z,16.80
2019-03-25T12:43:04.654Z,20.73
2019-03-25T12:45:33.312Z,14.00
2019-03-25T12:48:01.998Z,20.60
2019-03-25T12:50:30.630Z,21.30
2019-03-25T12:52:59.661Z,17.60
2019-03-25T12:55:28.376Z,18.90
2019-03-25T12:57:56.997Z,22.17
2019-03-25T13:00:36.809Z,20.30
2019-03-25T13:03:06.135Z,24.70
2019-03-25T13:05:34.900Z,22.70
2019-03-25T13:08:03.713Z,23.70
2019-03-25T13:10:32.380Z,22.87
2019-03-25T13:13:01.412Z,20.77
2019-03-25T13:15:29.991Z,25.10
2019-03-25T13:17:58.570Z,21.97
2019-03-25T13:20:27.219Z,17.10
2019-03-25T13:22:55.863Z,26.97
2019-03-25T13:25:24.529Z,25.27
2019-03-25T13:27:53.419Z,25.87
2019-03-25T13:30:22.452Z,23.60
2019-03-25T13:32:51.095Z,27.13
2019-03-25T13:35:19.739Z,28.10
2019-03-25T13:37:48.429Z,22.60
2019-03-25T13:40:17.120Z,24.10
2019-03-25T13:42:45.773Z,23.73
2019-03-25T13:45:14.465Z,20.80
2019-03-25T13:47:43.460Z,23.33
2019-03-25T13:50:12.849Z,18.17
2019-03-25T13:52:41.480Z,21.83
2019-03-25T13:55:10.785Z,21.47
2019-03-25T13:57:39.373Z,20.13
2019-03-25T14:00:08.670Z,16.50
2019-03-25T14:02:37.242Z,23.10
2019-03-25T14:05:06.512Z,22.03
2019-03-25T14:07:35.234Z,21.10
2019-03-25T14:10:06.478Z,25.13
2019-03-25T14:12:35.376Z,19.37
2019-03-25T14:15:06.322Z,19.57
2019-03-25T14:17:34.934Z,19.47
2019-03-25T14:20:04.867Z,18.40
2019-03-25T14:22:33.462Z,18.90
2019-03-25T14:25:02.061Z,18.93
2019-03-25T14:27:30.726Z,23.67
2019-03-25T14:29:59.375Z,23.40
2019-03-25T14:32:27.954Z,26.40
2019-03-25T14:34:56.531Z,28.03
2019-03-25T14:37:25.088Z,23.93
2019-03-25T14:39:53.744Z,18.37
2019-03-25T14:42:22.332Z,23.40
2019-03-25T14:44:51.313Z,29.00
2019-03-25T14:47:19.883Z,24.60
2019-03-25T14:49:48.548Z,23.10
2019-03-25T14:52:17.139Z,23.93
2019-03-25T14:54:45.748Z,24.17
2019-03-25T14:57:14.751Z,24.77
2019-03-25T14:59:43.401Z,29.53
2019-03-25T15:02:12.121Z,26.63
2019-03-25T15:04:40.771Z,29.13
2019-03-25T15:07:09.734Z,30.37
2019-03-25T15:09:38.426Z,26.70
2019-03-25T15:12:07.143Z,22.53
2019-03-25T15:14:35.813Z,35.17
2019-03-25T15:17:04.375Z,28.40
2019-03-25T15:19:33.001Z,26.40
2019-03-25T15:22:02.064Z,28.70
2019-03-25T15:24:30.666Z,29.20
2019-03-25T15:26:59.294Z,31.40
2019-03-25T15:29:27.946Z,26.40
2019-03-25T15:31:56.614Z,30.10
2019-03-25T15:34:25.202Z,20.77
2019-03-25T15:36:54.117Z,32.20
2019-03-25T15:39:23.428Z,27.30
2019-03-25T15:41:52.037Z,29.90
2019-03-25T15:44:20.676Z,27.00
2019-03-25T15:46:55.787Z,28.73
2019-03-25T15:49:19.515Z,25.60
2019-03-25T15:51:48.602Z,26.17
2019-03-25T15:54:17.182Z,15.30
2019-03-25T15:56:45.876Z,21.67
2019-03-25T15:59:14.488Z,24.00
2019-03-25T16:01:43.144Z,17.47
2019-03-25T16:04:11.800Z,18.53
2019-03-25T16:06:40.386Z,19.57
2019-03-25T16:09:09.303Z,36.87
2019-03-25T16:11:38.023Z,27.87
2019-03-25T16:14:06.621Z,25.20
2019-03-25T16:16:35.617Z,23.97
2019-03-25T16:19:04.338Z,24.57
2019-03-25T16:21:32.956Z,32.97
2019-03-25T16:24:01.550Z,32.53
2019-03-25T16:26:30.264Z,27.30
2019-03-25T16:28:58.947Z,32.20
2019-03-25T16:31:27.608Z,28.00
2019-03-25T16:33:56.320Z,23.47
2019-03-25T16:36:25.082Z,30.10
2019-03-25T16:38:53.727Z,28.67
2019-03-25T16:41:22.331Z,26.47
2019-03-25T16:43:50.935Z,30.30
2019-03-25T16:46:19.983Z,34.00
2019-03-25T16:48:48.586Z,28.17
2019-03-25T16:51:17.205Z,26.90
2019-03-25T16:53:46.158Z,27.07
2019-03-25T16:56:14.766Z,25.40
2019-03-25T16:58:43.335Z,27.17
2019-03-25T17:01:11.934Z,28.40
2019-03-25T17:03:40.670Z,31.43
2019-03-25T17:06:09.459Z,31.33
2019-03-25T17:08:38.138Z,22.60
2019-03-25T17:11:06.858Z,30.27
2019-03-25T17:13:35.893Z,27.83
2019-03-25T17:16:04.643Z,28.37
2019-03-25T17:18:33.272Z,34.53
2019-03-25T17:21:01.914Z,28.47
2019-03-25T17:23:30.590Z,26.10
2019-03-25T17:25:59.254Z,28.10
2019-03-25T17:28:27.905Z,30.10
2019-03-25T17:30:56.608Z,34.73
2019-03-25T17:33:25.238Z,34.93
2019-03-25T17:35:53.911Z,31.77
2019-03-25T17:38:22.533Z,31.90
2019-03-25T17:40:51.439Z,32.20
2019-03-25T17:43:20.386Z,31.17
2019-03-25T17:45:49.132Z,42.70
2019-03-25T17:48:17.770Z,50.17
2019-03-25T17:50:46.461Z,38.23
2019-03-25T17:53:15.053Z,41.77
2019-03-25T17:55:43.641Z,32.67
2019-03-25T17:58:12.199Z,34.03
2019-03-25T18:00:49.673Z,34.03
2019-03-25T18:03:18.255Z,28.33
2019-03-25T18:05:47.054Z,31.47
2019-03-25T18:08:15.693Z,36.20
2019-03-25T18:10:44.321Z,33.50
2019-03-25T18:13:21.994Z,32.00
2019-03-25T18:15:43.550Z,27.10
2019-03-25T18:18:12.118Z,33.17
2019-03-25T18:20:40.702Z,29.60
2019-03-25T18:23:09.370Z,32.63
2019-03-25T18:25:37.989Z,33.60
2019-03-25T18:28:06.770Z,40.67
2019-03-25T18:30:35.832Z,38.43
2019-03-25T18:33:04.569Z,33.23
2019-03-25T18:35:33.214Z,34.90
2019-03-25T18:38:01.825Z,38.03
2019-03-25T18:40:30.473Z,34.93
2019-03-25T18:42:59.175Z,30.70
2019-03-25T18:45:27.803Z,44.13
2019-03-25T18:47:56.558Z,41.20
2019-03-25T18:50:25.102Z,42.33
2019-03-25T18:52:55.788Z,33.10
2019-03-25T18:55:24.416Z,27.27
2019-03-25T18:57:53.101Z,31.63
2019-03-25T19:00:35.058Z,32.60
2019-03-25T19:03:03.947Z,27.17
2019-03-25T19:05:32.601Z,30.27
2019-03-25T19:08:04.049Z,23.33
2019-03-25T19:10:32.938Z,24.50
2019-03-25T19:13:01.590Z,33.13
2019-03-25T19:15:30.583Z,23.80
2019-03-25T19:17:59.658Z,33.27
2019-03-25T19:20:28.281Z,21.27
2019-03-25T19:22:56.987Z,26.33
2019-03-25T19:25:25.557Z,21.37
2019-03-25T19:27:54.160Z,24.30
2019-03-25T19:30:22.837Z,23.03
2019-03-25T19:32:51.485Z,26.83
2019-03-25T19:35:20.941Z,22.83
2019-03-25T19:37:49.583Z,21.07
2019-03-25T19:40:18.585Z,17.93
2019-03-25T19:42:47.199Z,22.50
2019-03-25T19:45:15.872Z,17.20
2019-03-25T19:47:44.481Z,22.13
2019-03-25T19:50:14.116Z,18.43
2019-03-25T19:52:42.695Z,25.73
2019-03-25T19:55:11.381Z,26.53
2019-03-25T19:57:40.104Z,28.10
2019-03-25T20:00:09.931Z,25.27
2019-03-25T20:02:38.525Z,28.07
2019-03-25T20:05:08.288Z,30.83
2019-03-25T20:07:37.340Z,32.50
2019-03-25T20:10:08.577Z,24.60
2019-03-25T20:12:37.229Z,28.07
2019-03-25T20:15:07.644Z,27.93
2019-03-25T20:17:36.443Z,22.87
2019-03-25T20:20:07.477Z,31.73
2019-03-25T20:22:36.111Z,31.77
2019-03-25T20:25:06.522Z,22.90
2019-03-25T20:27:35.581Z,28.83
2019-03-25T20:30:07.277Z,33.27
2019-03-25T20:32:35.883Z,28.03
2019-03-25T20:35:06.093Z,38.27
2019-03-25T20:37:34.738Z,37.50
2019-03-25T20:40:04.579Z,40.30
2019-03-25T20:42:33.150Z,32.67
2019-03-25T20:45:01.760Z,21.63
2019-03-25T20:47:30.367Z,37.70
2019-03-25T20:49:58.909Z,33.73
2019-03-25T20:52:27.508Z,23.17
2019-03-25T20:54:56.189Z,29.07
2019-03-25T20:57:24.902Z,25.00
2019-03-25T20:59:53.622Z,21.07
2019-03-25T21:02:22.250Z,24.93
2019-03-25T21:04:51.198Z,16.93
2019-03-25T21:07:19.916Z,17.47
2019-03-25T21:09:48.442Z,20.03
2019-03-25T21:12:17.105Z,21.33
2019-03-25T21:14:45.956Z,18.40
2019-03-25T21:17:15.020Z,19.57
2019-03-25T21:19:43.635Z,19.20
2019-03-25T21:22:12.250Z,20.10
2019-03-25T21:24:40.935Z,19.63
2019-03-25T21:27:09.480Z,25.73
2019-03-25T21:29:38.069Z,23.33
2019-03-25T21:32:06.632Z,27.63
2019-03-25T21:34:35.286Z,23.67
2019-03-25T21:37:05.737Z,28.17
2019-03-25T21:39:34.154Z,24.80
2019-03-25T21:42:02.751Z,30.23
2019-03-25T21:44:31.325Z,25.67
2019-03-25T21:46:59.979Z,32.13
2019-03-25T21:49:28.597Z,20.27
2019-03-25T21:51:57.109Z,18.40
2019-03-25T21:54:25.801Z,20.60
2019-03-25T21:56:54.438Z,29.10
2019-03-25T21:59:22.990Z,32.63
2019-03-25T22:01:51.868Z,30.43
2019-03-25T22:04:20.405Z,22.70
2019-03-25T22:06:48.988Z,18.10
2019-03-25T22:09:17.555Z,26.70
2019-03-25T22:11:46.158Z,24.07
2019-03-25T22:14:14.710Z,31.63
2019-03-25T22:16:43.673Z,32.10
2019-03-25T22:19:12.233Z,24.10
2019-03-25T22:21:40.821Z,30.30
2019-03-25T22:24:09.465Z,22.43
2019-03-25T22:26:38.055Z,41.33
2019-03-25T22:29:06.626Z,22.93
2019-03-25T22:31:35.206Z,31.90
2019-03-25T22:34:03.774Z,26.77
2019-03-25T22:36:32.440Z,24.37
2019-03-25T22:39:00.993Z,20.10
2019-03-25T22:41:29.606Z,15.90
2019-03-25T22:43:58.171Z,18.90
2019-03-25T22:46:26.823Z,21.37
2019-03-25T22:48:55.500Z,23.27
2019-03-25T22:51:24.072Z,20.83
2019-03-25T22:53:52.654Z,17.97
2019-03-25T22:56:21.231Z,17.93
2019-03-25T22:58:49.884Z,25.20
2019-03-25T23:01:18.570Z,25.03
2019-03-25T23:03:47.136Z,20.83
2019-03-25T23:06:15.775Z,18.03
2019-03-25T23:08:44.360Z,18.97
2019-03-25T23:11:13.084Z,24.30
2019-03-25T23:13:41.670Z,19.90
2019-03-25T23:16:10.661Z,22.27
2019-03-25T23:18:39.178Z,16.37
2019-03-25T23:21:07.739Z,20.60
2019-03-25T23:23:36.657Z,21.43
2019-03-25T23:26:05.360Z,23.70
2019-03-25T23:28:33.944Z,12.50
2019-03-25T23:31:02.556Z,16.50
2019-03-25T23:33:31.184Z,14.97
2019-03-25T23:36:00.119Z,17.13
2019-03-25T23:38:28.690Z,16.47
2019-03-25T23:40:57.284Z,20.30
2019-03-25T23:43:26.293Z,19.10
2019-03-25T23:45:55.273Z,20.90
2019-03-25T23:48:37.473Z,19.47
2019-03-25T23:51:06.209Z,16.97
2019-03-25T23:53:35.168Z,15.93
2019-03-25T23:56:03.828Z,14.27
2019-03-25T23:58:32.388Z,26.30
